• Join FlightAware (Why Join?)
  • Login
  • US Flag 
03:47AM EDT


 

Airport Tracker/Info


-or-


 

Live Flight TrackerFlight Track Log ✈ SWA1254 ✈ 22-Sep-2013 ✈ KPVD - KTPA

Flight Track Log - Related Links

Times and Time Zones

All times are in EDT time to prevent confusion due to time zone crossing. See the SWA1254 flight status page for this flight to view local times or setup timezone preferences in your user account.

Time Position Orientation Groundspeed Altitude Reporting Facility
EDT Latitude Longitude Course Direction KTS MPH feet Rate Location/Type
03:52PM 41.7019 -71.4447 265° West 158 182 1,100  Level Boston Center
03:53PM 41.6964 -71.5225 265° West 195 224 3,100 2,280 Climbing Boston Center
03:54PM 41.7469 -71.5997 311° West 202 232 6,200 3,240 Climbing Boston Center
03:55PM 41.8039 -71.6658 319° Northwest 228 262 9,600 2,400 Climbing Boston Center
03:56PM 41.8294 -71.7686 288° West 257 296 11,100 2,220 Climbing Boston Center
03:57PM 41.8425 -71.8939 278° West 306 352 14,100 2,820 Climbing Boston Center
03:59PM 41.8475 -72.0500 273° West 354 407 17,400 2,700 Climbing Boston Center
04:00PM 41.8042 -72.1700 244° Southwest 354 407 20,100 2,520 Climbing Boston Center
04:01PM 41.7583 -72.2981 244° Southwest 367 422 22,600 2,280 Climbing Boston Center
04:02PM 41.7106 -72.4289 244° Southwest 384 442 24,600 1,980 Climbing Boston Center
04:03PM 41.6606 -72.5622 243° Southwest 390 449 26,500 1,740 Climbing Boston Center
04:04PM 41.6103 -72.7011 244° Southwest 395 455 28,200 1,800 Climbing Boston Center
04:05PM 41.5597 -72.8369 244° Southwest 407 468 30,200 1,740 Climbing Boston Center
04:06PM 41.5156 -72.9558 244° Southwest 407 468 31,800 1,560 Climbing Boston Center
04:07PM 41.4669 -73.0911 244° Southwest 401 461 33,400 1,500 Climbing Boston Center
04:08PM 41.4161 -73.2261 243° Southwest 407 468 34,800 1,380 Climbing Boston Center
04:09PM 41.3672 -73.3611 244° Southwest 402 463 36,200 1,200 Climbing Boston Center
04:10PM 41.2911 -73.5600 243° Southwest 383 441 38,000 660 Climbing New York Center
04:11PM 41.2278 -73.6789 235° Southwest 383 441 38,000  Level New York Center
04:12PM 41.1583 -73.7942 231° Southwest 396 456 38,000  Level New York Center
04:13PM 41.0908 -73.9069 232° Southwest 402 463 38,000  Level New York Center
04:14PM 41.0211 -74.0219 231° Southwest 402 463 38,000  Level New York Center
04:15PM 40.9533 -74.1367 232° Southwest 402 463 38,000  Level New York Center
04:16PM 40.8833 -74.2458 230° Southwest 407 468 38,000  Level New York Center
04:17PM 40.8153 -74.3603 232° Southwest 407 468 38,000  Level New York Center
04:18PM 40.7472 -74.4744 232° Southwest 407 468 38,000  Level New York Center
04:19PM 40.6750 -74.5853 229° Southwest 407 468 38,000  Level New York Center
04:20PM 40.6067 -74.7019 232° Southwest 407 468 38,000  Level New York Center
04:21PM 40.5361 -74.8125 230° Southwest 407 468 38,000  Level New York Center
04:22PM 40.4594 -74.9197 227° Southwest 407 468 38,000  Level New York Center
04:23PM 40.3828 -75.0297 228° Southwest 407 468 38,000  Level New York Center
04:24PM 40.3058 -75.1364 227° Southwest 407 468 38,000  Level New York Center
04:25PM 40.2222 -75.2564 228° Southwest 407 468 38,000  Level New York Center
04:26PM 40.1450 -75.3653 227° Southwest 407 468 38,000  Level New York Center
04:27PM 40.0658 -75.4714 226° Southwest 407 468 38,000  Level New York Center
04:28PM 39.9861 -75.5825 227° Southwest 412 474 38,000  Level New York Center
04:29PM 39.9089 -75.6908 227° Southwest 412 474 38,000  Level New York Center
04:31PM 39.7883 -75.8803 230° Southwest 420 483 38,000  Level Washington Center
04:32PM 39.7172 -75.9961 231° Southwest 420 483 38,000  Level Washington Center
04:33PM 39.6417 -76.1117 230° Southwest 420 483 38,000  Level Washington Center
04:34PM 39.5681 -76.2294 231° Southwest 426 490 38,000  Level Washington Center
04:35PM 39.4944 -76.3472 231° Southwest 426 490 38,000  Level Washington Center
04:36PM 39.4189 -76.4619 230° Southwest 426 490 38,000  Level Washington Center
04:37PM 39.3408 -76.5764 229° Southwest 426 490 38,000  Level Washington Center
04:38PM 39.2689 -76.6961 232° Southwest 426 490 38,000  Level Washington Center
04:39PM 39.1950 -76.8075 229° Southwest 426 490 38,000  Level Washington Center
04:41PM 39.0464 -77.0375 230° Southwest 426 490 38,000  Level Washington Center
04:42PM 38.9747 -77.1136 220° Southwest 421 484 38,000  Level Washington Center
04:43PM 38.8772 -77.2236 221° Southwest 421 484 38,000  Level Washington Center
04:44PM 38.7886 -77.3147 219° Southwest 421 484 38,000  Level Washington Center
04:45PM 38.6994 -77.4139 221° Southwest 421 484 38,000  Level Washington Center
04:46PM 38.6125 -77.5100 221° Southwest 421 484 38,000  Level Washington Center
04:47PM 38.5233 -77.6058 220° Southwest 421 484 38,000  Level Washington Center
04:48PM 38.4361 -77.7017 221° Southwest 415 478 38,000  Level Washington Center
04:49PM 38.3489 -77.7969 221° Southwest 415 478 38,000  Level Washington Center
04:50PM 38.2597 -77.8922 220° Southwest 420 483 38,000  Level Washington Center
04:51PM 38.1703 -77.9872 220° Southwest 420 483 38,000  Level Washington Center
04:52PM 38.0786 -78.0819 219° Southwest 420 483 38,000  Level Washington Center
04:53PM 37.9911 -78.1739 220° Southwest 420 483 38,000  Level Washington Center
04:54PM 37.8931 -78.2731 219° Southwest 415 478 38,000  Level Washington Center
04:55PM 37.7992 -78.3644 218° Southwest 421 484 38,000  Level Washington Center
04:56PM 37.7139 -78.4400 215° Southwest 429 494 38,000  Level Washington Center
04:57PM 37.6222 -78.5283 217° Southwest 429 494 38,000  Level Washington Center
04:58PM 37.5261 -78.6164 216° Southwest 429 494 38,000  Level Washington Center
04:59PM 37.4342 -78.7042 217° Southwest 429 494 38,000  Level Washington Center
05:00PM 37.3403 -78.7892 216° Southwest 429 494 38,000  Level Washington Center
05:01PM 37.2353 -78.8839 216° Southwest 429 494 38,000  Level Washington Center
05:02PM 37.1431 -78.9739 218° Southwest 429 494 38,000  Level Washington Center
05:03PM 37.0489 -79.0581 216° Southwest 429 494 38,000  Level Washington Center
05:04PM 36.9567 -79.1450 217° Southwest 429 494 38,000  Level Washington Center
05:05PM 36.8622 -79.2314 216° Southwest 429 494 38,000  Level Washington Center
05:06PM 36.7764 -79.3106 216° Southwest 424 488 38,000  Level Washington Center
05:07PM 36.6839 -79.3967 217° Southwest 424 488 38,000  Level Washington Center
05:08PM 36.5894 -79.4828 216° Southwest 424 488 38,000  Level Washington Center
05:10PM 36.3264 -79.7197 216° Southwest 418 481 38,000  Level Atlanta Center
05:11PM 36.2272 -79.8072 215° Southwest 429 494 38,000  Level Atlanta Center
05:12PM 36.1200 -79.9056 217° Southwest 439 505 38,000  Level Atlanta Center
05:13PM 36.0164 -79.9878 213° Southwest 444 511 38,000  Level Atlanta Center
05:14PM 35.8994 -80.0475 202° Southwest 444 511 38,000  Level Atlanta Center
05:15PM 35.7847 -80.1069 203° Southwest 451 519 38,000  Level Atlanta Center
05:16PM 35.6778 -80.1581 201° Southwest 458 527 38,000  Level Atlanta Center
05:17PM 35.5464 -80.2256 203° Southwest 463 533 38,000  Level Atlanta Center
05:18PM 35.4314 -80.2844 203° Southwest 463 533 38,000  Level Atlanta Center
05:19PM 35.3142 -80.3431 202° Southwest 463 533 38,000  Level Atlanta Center
05:20PM 35.1950 -80.4044 203° Southwest 457 526 38,000  Level Atlanta Center
05:23PM 34.9283 -80.5353 202° Southwest 463 533 38,000  Level Jacksonville Center
05:24PM 34.7981 -80.5944 200° South 458 527 38,000  Level Jacksonville Center
05:25PM 34.6867 -80.6556 204° Southwest 453 521 38,000  Level Jacksonville Center
05:26PM 34.5789 -80.7089 202° Southwest 453 521 38,000  Level Jacksonville Center
05:27PM 34.4611 -80.7672 202° Southwest 458 527 38,000  Level Jacksonville Center
05:28PM 34.3431 -80.8253 202° Southwest 458 527 38,000  Level Jacksonville Center
05:29PM 34.2375 -80.8756 201° Southwest 439 505 38,000  Level Jacksonville Center
05:30PM 34.1194 -80.9286 200° South 433 498 38,000  Level Jacksonville Center
05:31PM 34.0036 -80.9836 201° Southwest 441 507 38,000  Level Jacksonville Center
05:32PM 33.8917 -81.0361 201° Southwest 446 513 38,000  Level Jacksonville Center
05:33PM 33.7797 -81.0911 202° Southwest 446 513 38,000 -180 Level Jacksonville Center
05:34PM 33.6700 -81.1481 203° Southwest 440 506 37,700 -660 Descending Jacksonville Center
05:35PM 33.5622 -81.2000 202° Southwest 429 494 36,700 -900 Descending Jacksonville Center
05:36PM 33.4542 -81.2519 202° Southwest 423 487 36,000 -360 Descending Jacksonville Center
05:37PM 33.3464 -81.3061 203° Southwest 423 487 36,000  Level Jacksonville Center
05:38PM 33.2386 -81.3553 201° Southwest 423 487 36,000  Level Jacksonville Center
05:39PM 33.1347 -81.4092 203° Southwest 417 480 36,000  Level Jacksonville Center
05:40PM 33.0206 -81.4656 202° Southwest 417 480 36,000  Level Jacksonville Center
05:41PM 32.9147 -81.5142 201° Southwest 411 473 36,000  Level Jacksonville Center
05:42PM 32.8086 -81.5578 199° South 411 473 36,000  Level Jacksonville Center
05:43PM 32.6964 -81.5867 192° South 411 473 36,000  Level Jacksonville Center
05:44PM 32.5839 -81.6181 193° South 417 480 36,000  Level Jacksonville Center
05:45PM 32.4714 -81.6467 192° South 422 486 36,000  Level Jacksonville Center
05:46PM 32.3569 -81.6778 193° South 427 491 36,000  Level Jacksonville Center
05:47PM 32.2550 -81.7036 192° South 423 487 36,000  Level Jacksonville Center
05:48PM 32.1278 -81.7372 193° South 423 487 36,000  Level Jacksonville Center
05:49PM 32.0111 -81.7681 193° South 423 487 36,000  Level Jacksonville Center
05:50PM 31.8944 -81.7989 193° South 430 495 36,000  Level Jacksonville Center
05:51PM 31.7861 -81.8219 190° South 436 502 36,000  Level Jacksonville Center
05:52PM 31.6592 -81.8528 192° South 430 495 36,000  Level Jacksonville Center
05:53PM 31.5403 -81.8808 191° South 430 495 36,000  Level Jacksonville Center
05:54PM 31.4236 -81.9114 193° South 430 495 36,000  Level Jacksonville Center
05:55PM 31.3089 -81.9394 192° South 430 495 36,000  Level Jacksonville Center
05:56PM 31.1944 -81.9672 192° South 430 495 36,000  Level Jacksonville Center
05:57PM 31.0797 -81.9975 193° South 430 495 36,000  Level Jacksonville Center
05:58PM 30.9631 -82.0278 193° South 430 495 36,000  Level Jacksonville Center
05:59PM 30.8442 -82.0553 191° South 430 495 36,000  Level Jacksonville Center
06:00PM 30.7275 -82.0853 192° South 430 495 36,000  Level Jacksonville Center
06:01PM 30.6108 -82.1131 192° South 430 495 36,000  Level Jacksonville Center
06:02PM 30.4919 -82.1356 189° South 430 495 36,000  Level Jacksonville Center
06:03PM 30.3708 -82.1678 193° South 435 501 36,000  Level Jacksonville Center
06:04PM 30.2500 -82.1953 191° South 435 501 36,000  Level Jacksonville Center
06:05PM 30.1333 -82.2250 192° South 435 501 36,000 -60 Level Jacksonville Center
06:06PM 30.0122 -82.2592 194° South 440 506 35,900 -1,440 Descending Jacksonville Center
06:07PM 29.8997 -82.2864 192° South 453 521 33,200 -2,700 Descending Jacksonville Center
06:08PM 29.7808 -82.3133 191° South 448 516 30,600 -2,520 Descending Jacksonville Center
06:09PM 29.6536 -82.3428 191° South 435 501 28,200 -1,800 Descending Jacksonville Center
06:10PM 29.5367 -82.3531 184° South 429 494 27,000 -1,140 Descending Jacksonville Center
06:11PM 29.4261 -82.3369 173° South 406 467 26,000 -1,560 Descending Jacksonville Center
06:12PM 29.3175 -82.3258 175° South 406 467 23,900 -2,340 Descending Jacksonville Center
06:13PM 29.2067 -82.3122 174° South 406 467 21,400 -2,340 Descending Jacksonville Center
06:14PM 29.1003 -82.3033 176° South 406 467 19,300 -2,160 Descending Jacksonville Center
06:15PM 28.9958 -82.2894 173° South 400 460 17,100 -2,100 Descending Jacksonville Center
06:16PM 28.8956 -82.2736 172° South 390 449 15,100 -1,440 Descending Jacksonville Center
06:18PM 28.7167 -82.2667 178° South 307 353 13,000 -1,260 Descending Tampa TRACON
06:19PM 28.6333 -82.2500 170° South 284 327 11,600 -1,380 Descending Tampa TRACON
06:20PM 28.5500 -82.2500 180° South 291 335 10,300 -1,320 Descending Tampa TRACON
06:21PM 28.4667 -82.2500 180° South 292 336 9,000 -1,500 Descending Tampa TRACON
06:22PM 28.4000 -82.2833 204° Southwest 276 318 7,400 -1,140 Descending Tampa TRACON
06:23PM 28.3500 -82.3500 230° Southwest 267 307 6,800 -1,080 Descending Tampa TRACON
06:24PM 28.2833 -82.4000 213° Southwest 271 312 5,300 -1,500 Descending Tampa TRACON
06:25PM 28.2333 -82.4500 221° Southwest 265 305 3,800 -1,140 Descending Tampa TRACON
06:26PM 28.1667 -82.5000 213° Southwest 247 284 3,100 -540 Descending Tampa TRACON
06:27PM 28.1167 -82.5167 196° South 198 228 2,800 -720 Descending Tampa TRACON
06:28PM 28.0667 -82.5333 196° South 164 189 1,700 -960 Descending Tampa TRACON
06:29PM 28.0333 -82.5333 180° South 141 162 900 -840 Descending Tampa TRACON